createdAt,value
2019-03-29T00:00:55.773Z,12.78
2019-03-29T00:01:55.765Z,12.78
2019-03-29T00:02:55.737Z,12.75
2019-03-29T00:03:55.728Z,12.75
2019-03-29T00:04:55.716Z,12.72
2019-03-29T00:05:55.708Z,12.72
2019-03-29T00:06:55.771Z,12.70
2019-03-29T00:07:55.689Z,12.68
2019-03-29T00:08:55.680Z,12.67
2019-03-29T00:09:55.663Z,12.65
2019-03-29T00:10:55.652Z,12.64
2019-03-29T00:11:55.641Z,12.64
2019-03-29T00:12:57.010Z,12.62
2019-03-29T00:13:55.619Z,12.61
2019-03-29T00:14:55.609Z,12.60
2019-03-29T00:15:55.598Z,12.59
2019-03-29T00:16:55.603Z,12.58
2019-03-29T00:17:55.577Z,12.56
2019-03-29T00:18:55.576Z,12.55
2019-03-29T00:19:55.555Z,12.55
2019-03-29T00:20:55.545Z,12.52
2019-03-29T00:21:55.534Z,12.51
2019-03-29T00:22:56.308Z,12.48
2019-03-29T00:24:06.173Z,12.47
2019-03-29T00:24:56.520Z,12.45
2019-03-29T00:25:55.489Z,12.44
2019-03-29T00:26:55.480Z,12.40
2019-03-29T00:27:55.469Z,12.39
2019-03-29T00:28:55.457Z,12.36
2019-03-29T00:29:55.946Z,12.34
2019-03-29T00:30:55.447Z,12.31
2019-03-29T00:31:55.426Z,12.30
2019-03-29T00:32:55.413Z,12.27
2019-03-29T00:33:55.405Z,12.25
2019-03-29T00:34:55.392Z,12.24
2019-03-29T00:35:55.382Z,12.22
2019-03-29T00:36:55.382Z,12.18
2019-03-29T00:37:55.883Z,12.16
2019-03-29T00:38:55.348Z,12.11
2019-03-29T00:39:55.339Z,12.09
2019-03-29T00:40:55.329Z,12.06
2019-03-29T00:41:55.315Z,12.03
2019-03-29T00:42:55.317Z,11.99
2019-03-29T00:43:55.297Z,11.96
2019-03-29T00:44:55.285Z,11.93
2019-03-29T00:45:55.274Z,11.90
2019-03-29T00:46:55.261Z,11.89
2019-03-29T00:47:55.980Z,11.86
2019-03-29T00:48:55.256Z,11.84
2019-03-29T00:49:55.228Z,11.83
2019-03-29T00:50:55.224Z,11.80
2019-03-29T00:51:55.206Z,11.80
2019-03-29T00:52:55.195Z,11.79
2019-03-29T00:53:55.183Z,11.78
2019-03-29T00:54:55.194Z,11.78
2019-03-29T00:55:55.170Z,11.77
2019-03-29T00:56:55.151Z,11.78
2019-03-29T00:57:55.145Z,11.76
2019-03-29T00:58:55.129Z,11.77
2019-03-29T00:59:55.117Z,11.75
2019-03-29T01:00:55.117Z,11.74
2019-03-29T01:01:55.100Z,11.74
2019-03-29T01:02:55.086Z,11.70
2019-03-29T01:03:55.074Z,11.69
2019-03-29T01:04:55.223Z,11.65
2019-03-29T01:05:55.054Z,11.62
2019-03-29T01:06:55.054Z,11.59
2019-03-29T01:08:07.012Z,11.54
2019-03-29T01:08:56.023Z,11.50
2019-03-29T01:09:55.010Z,11.48
2019-03-29T01:10:54.999Z,11.44
2019-03-29T01:11:54.990Z,11.39
2019-03-29T01:12:54.990Z,11.36
2019-03-29T01:13:54.967Z,11.33
2019-03-29T01:14:54.988Z,11.29
2019-03-29T01:15:54.946Z,11.26
2019-03-29T01:16:54.935Z,11.22
2019-03-29T01:17:54.924Z,11.19
2019-03-29T01:18:54.934Z,11.15
2019-03-29T01:19:55.929Z,11.12
2019-03-29T01:20:54.894Z,11.10
2019-03-29T01:21:54.882Z,11.07
2019-03-29T01:22:54.871Z,11.03
2019-03-29T01:23:54.861Z,11.01
2019-03-29T01:24:54.863Z,10.98
2019-03-29T01:25:54.874Z,10.96
2019-03-29T01:26:54.831Z,10.93
2019-03-29T01:27:54.817Z,10.92
2019-03-29T01:28:54.807Z,10.88
2019-03-29T01:29:54.796Z,10.85
2019-03-29T01:30:54.797Z,10.83
2019-03-29T01:31:54.784Z,10.80
2019-03-29T01:32:54.772Z,10.77
2019-03-29T01:33:54.765Z,10.75
2019-03-29T01:34:54.741Z,10.73
2019-03-29T01:35:54.730Z,10.70
2019-03-29T01:36:54.737Z,10.66
2019-03-29T01:37:54.708Z,10.64
2019-03-29T01:38:54.700Z,10.61
2019-03-29T01:39:54.686Z,10.59
2019-03-29T01:40:54.676Z,10.55
2019-03-29T01:41:54.675Z,10.52
2019-03-29T01:42:54.669Z,10.50
2019-03-29T01:43:54.643Z,10.47
2019-03-29T01:44:54.631Z,10.46
2019-03-29T01:45:54.636Z,10.42
2019-03-29T01:46:54.609Z,10.40
2019-03-29T01:47:55.972Z,10.37
2019-03-29T01:48:54.597Z,10.35
2019-03-29T01:49:54.580Z,10.30
2019-03-29T01:50:54.565Z,10.28
2019-03-29T01:51:54.554Z,10.25
2019-03-29T01:52:54.544Z,10.21
2019-03-29T01:53:54.533Z,10.17
2019-03-29T01:54:54.539Z,10.15
2019-03-29T01:55:54.512Z,10.13
2019-03-29T01:56:54.500Z,10.10
2019-03-29T01:57:54.489Z,10.08
2019-03-29T01:58:54.478Z,10.05
2019-03-29T01:59:54.470Z,10.02
2019-03-29T02:00:54.470Z,10.00
2019-03-29T02:01:55.057Z,9.96
2019-03-29T02:02:54.435Z,9.94
2019-03-29T02:03:54.424Z,9.92
2019-03-29T02:04:54.415Z,9.90
2019-03-29T02:05:54.404Z,9.89
2019-03-29T02:06:54.405Z,9.87
2019-03-29T02:07:54.381Z,9.85
2019-03-29T02:08:54.373Z,9.83
2019-03-29T02:09:54.360Z,9.81
2019-03-29T02:10:54.348Z,9.80
2019-03-29T02:11:54.338Z,9.78
2019-03-29T02:12:54.338Z,9.75
2019-03-29T02:13:54.316Z,9.73
2019-03-29T02:14:54.306Z,9.71
2019-03-29T02:15:54.295Z,9.69
2019-03-29T02:16:54.284Z,9.67
2019-03-29T02:17:54.272Z,9.65
2019-03-29T02:18:54.281Z,9.61
2019-03-29T02:19:54.254Z,9.59
2019-03-29T02:20:54.241Z,9.57
2019-03-29T02:21:54.234Z,9.54
2019-03-29T02:22:54.222Z,9.51
2019-03-29T02:23:54.210Z,9.51
2019-03-29T02:24:54.210Z,9.47
2019-03-29T02:25:54.188Z,9.45
2019-03-29T02:26:54.181Z,9.43
2019-03-29T02:27:54.173Z,9.42
2019-03-29T02:28:54.156Z,9.39
2019-03-29T02:29:54.148Z,9.37
2019-03-29T02:30:54.145Z,9.34
2019-03-29T02:31:54.130Z,9.32
2019-03-29T02:32:54.114Z,9.29
2019-03-29T02:33:54.124Z,9.28
2019-03-29T02:34:54.095Z,9.24
2019-03-29T02:35:54.084Z,9.22
2019-03-29T02:36:54.083Z,9.20
2019-03-29T02:37:54.061Z,9.19
2019-03-29T02:38:56.226Z,9.17
2019-03-29T02:39:54.930Z,9.14
2019-03-29T02:40:54.029Z,9.13
2019-03-29T02:41:54.018Z,9.10
2019-03-29T02:42:54.020Z,9.08
2019-03-29T02:43:53.995Z,9.07
2019-03-29T02:44:53.989Z,9.03
2019-03-29T02:45:53.975Z,9.01
2019-03-29T02:46:54.270Z,9.00
2019-03-29T02:47:53.953Z,8.98
2019-03-29T02:48:53.961Z,8.98
2019-03-29T02:49:53.934Z,8.96
2019-03-29T02:50:54.041Z,8.94
2019-03-29T02:51:53.911Z,8.90
2019-03-29T02:52:53.898Z,8.89
2019-03-29T02:53:53.888Z,8.89
2019-03-29T02:54:53.888Z,8.87
2019-03-29T02:55:53.868Z,8.85
2019-03-29T02:56:53.856Z,8.83
2019-03-29T02:57:53.845Z,8.82
2019-03-29T02:58:53.844Z,8.80
2019-03-29T02:59:53.828Z,8.78
2019-03-29T03:00:53.826Z,8.78
2019-03-29T03:01:53.803Z,8.74
2019-03-29T03:02:53.794Z,8.73
2019-03-29T03:03:53.780Z,8.72
2019-03-29T03:04:53.770Z,8.73
2019-03-29T03:05:53.760Z,8.70
2019-03-29T03:06:53.765Z,8.70
2019-03-29T03:07:53.734Z,8.67
2019-03-29T03:09:11.770Z,8.66
2019-03-29T03:09:54.713Z,8.65
2019-03-29T03:10:53.702Z,8.64
2019-03-29T03:11:53.691Z,8.64
2019-03-29T03:12:53.693Z,8.62
2019-03-29T03:13:53.669Z,8.60
2019-03-29T03:14:53.665Z,8.60
2019-03-29T03:15:53.649Z,8.59
2019-03-29T03:16:53.647Z,8.59
2019-03-29T03:17:53.630Z,8.57
2019-03-29T03:18:53.627Z,8.57
2019-03-29T03:19:53.605Z,8.56
2019-03-29T03:20:53.595Z,8.55
2019-03-29T03:21:53.583Z,8.54
2019-03-29T03:22:53.574Z,8.53
2019-03-29T03:23:53.571Z,8.54
2019-03-29T03:24:53.580Z,8.51
2019-03-29T03:25:53.540Z,8.51
2019-03-29T03:26:53.529Z,8.50
2019-03-29T03:27:53.519Z,8.50
2019-03-29T03:28:53.512Z,8.49
2019-03-29T03:29:53.499Z,8.48
2019-03-29T03:30:53.500Z,8.47
2019-03-29T03:31:53.476Z,8.45
2019-03-29T03:32:53.489Z,8.44
2019-03-29T03:33:53.453Z,8.42
2019-03-29T03:34:53.456Z,8.40
2019-03-29T03:35:53.432Z,8.40
2019-03-29T03:36:53.435Z,8.37
2019-03-29T03:37:53.544Z,8.36
2019-03-29T03:38:53.409Z,8.35
2019-03-29T03:39:53.389Z,8.34
2019-03-29T03:40:53.384Z,8.32
2019-03-29T03:41:53.374Z,8.31
2019-03-29T03:42:53.369Z,8.29
2019-03-29T03:43:53.350Z,8.28
2019-03-29T03:44:53.342Z,8.26
2019-03-29T03:45:53.325Z,8.26
2019-03-29T03:46:53.312Z,8.22
2019-03-29T03:47:53.302Z,8.21
2019-03-29T03:48:53.313Z,8.19
2019-03-29T03:49:53.281Z,8.18
2019-03-29T03:50:53.272Z,8.18
2019-03-29T03:51:53.260Z,8.17
2019-03-29T03:52:53.253Z,8.16
2019-03-29T03:53:53.245Z,8.14
2019-03-29T03:54:53.244Z,8.13
2019-03-29T03:55:53.221Z,8.12
2019-03-29T03:56:53.206Z,8.11
2019-03-29T03:57:57.443Z,8.11
2019-03-29T03:58:53.188Z,8.09
2019-03-29T03:59:53.174Z,8.07
2019-03-29T04:00:53.187Z,8.07
2019-03-29T04:01:53.153Z,8.07
2019-03-29T04:02:53.146Z,8.06
2019-03-29T04:03:53.136Z,8.05
2019-03-29T04:04:53.125Z,8.04
2019-03-29T04:05:53.112Z,8.04
2019-03-29T04:06:53.113Z,8.02
2019-03-29T04:07:53.090Z,8.01
2019-03-29T04:08:53.081Z,8.00
2019-03-29T04:09:53.072Z,8.01
2019-03-29T04:10:53.059Z,7.98
2019-03-29T04:11:53.050Z,7.98
2019-03-29T04:12:53.047Z,7.98
2019-03-29T04:13:53.070Z,7.94
2019-03-29T04:14:53.018Z,7.93
2019-03-29T04:15:53.076Z,7.92
2019-03-29T04:16:52.996Z,7.91
2019-03-29T04:17:52.986Z,7.88
2019-03-29T04:18:52.993Z,7.87
2019-03-29T04:19:52.963Z,7.86
2019-03-29T04:20:52.956Z,7.84
2019-03-29T04:21:52.943Z,7.82
2019-03-29T04:22:52.933Z,7.81
2019-03-29T04:23:52.922Z,7.79
2019-03-29T04:24:53.031Z,7.78
2019-03-29T04:25:52.908Z,7.78
2019-03-29T04:26:52.889Z,7.77
2019-03-29T04:27:52.880Z,7.75
2019-03-29T04:29:04.073Z,7.75
2019-03-29T04:29:53.867Z,7.74
2019-03-29T04:30:52.871Z,7.73
2019-03-29T04:31:52.837Z,7.71
2019-03-29T04:32:52.826Z,7.69
2019-03-29T04:33:52.816Z,7.68
2019-03-29T04:34:52.804Z,7.66
2019-03-29T04:35:52.808Z,7.64
2019-03-29T04:36:52.783Z,7.63
2019-03-29T04:37:52.772Z,7.60
2019-03-29T04:38:52.761Z,7.59
2019-03-29T04:40:06.479Z,7.58
2019-03-29T04:40:53.754Z,7.56
2019-03-29T04:41:52.729Z,7.57
2019-03-29T04:42:52.718Z,7.57
2019-03-29T04:43:52.707Z,7.55
2019-03-29T04:44:52.696Z,7.53
2019-03-29T04:45:52.687Z,7.52
2019-03-29T04:46:52.692Z,7.49
2019-03-29T04:47:52.663Z,7.49
2019-03-29T04:48:52.652Z,7.49
2019-03-29T04:49:52.640Z,7.48
2019-03-29T04:50:52.631Z,7.45
2019-03-29T04:51:52.622Z,7.44
2019-03-29T04:52:52.631Z,7.43
2019-03-29T04:53:52.597Z,7.43
2019-03-29T04:54:52.588Z,7.42
2019-03-29T04:55:52.581Z,7.40
2019-03-29T04:56:52.565Z,7.40
2019-03-29T04:57:52.554Z,7.41
2019-03-29T04:58:52.556Z,7.39
2019-03-29T04:59:52.532Z,7.40
2019-03-29T05:00:52.523Z,7.39
2019-03-29T05:01:52.511Z,7.39
2019-03-29T05:02:52.502Z,7.38
2019-03-29T05:03:52.489Z,7.38
2019-03-29T05:04:52.491Z,7.37
2019-03-29T05:05:52.467Z,7.37
2019-03-29T05:06:52.456Z,7.37
2019-03-29T05:07:52.445Z,7.36
2019-03-29T05:08:52.435Z,7.36
2019-03-29T05:09:52.439Z,7.36
2019-03-29T05:10:52.423Z,7.35
2019-03-29T05:11:52.402Z,7.34
2019-03-29T05:12:52.394Z,7.34
2019-03-29T05:13:52.385Z,7.34
2019-03-29T05:14:52.369Z,7.34
2019-03-29T05:15:52.358Z,7.32
2019-03-29T05:16:52.356Z,7.32
2019-03-29T05:17:52.336Z,7.33
2019-03-29T05:18:52.325Z,7.33
2019-03-29T05:19:52.313Z,7.33
2019-03-29T05:20:52.304Z,7.34
2019-03-29T05:21:52.293Z,7.36
2019-03-29T05:22:52.293Z,7.35
2019-03-29T05:23:52.277Z,7.36
2019-03-29T05:24:52.259Z,7.37
2019-03-29T05:25:52.248Z,7.38
2019-03-29T05:26:52.276Z,7.38
2019-03-29T05:27:52.226Z,7.39
2019-03-29T05:28:52.228Z,7.41
2019-03-29T05:29:52.205Z,7.41
2019-03-29T05:30:52.194Z,7.44
2019-03-29T05:31:53.653Z,7.48
2019-03-29T05:32:52.172Z,7.52
2019-03-29T05:33:52.160Z,7.55
2019-03-29T05:34:52.161Z,7.58
2019-03-29T05:35:52.138Z,7.60
2019-03-29T05:36:52.127Z,7.65
2019-03-29T05:37:52.120Z,7.70
2019-03-29T05:38:52.106Z,7.73
2019-03-29T05:39:52.099Z,7.77
2019-03-29T05:40:52.097Z,7.81
2019-03-29T05:41:52.076Z,7.87
2019-03-29T05:42:52.065Z,7.93
2019-03-29T05:43:52.052Z,8.02
2019-03-29T05:44:52.042Z,8.08
2019-03-29T05:45:52.028Z,8.15
2019-03-29T05:46:52.033Z,8.23
2019-03-29T05:47:52.012Z,8.33
2019-03-29T05:48:51.996Z,8.42
2019-03-29T05:49:51.986Z,8.54
2019-03-29T05:50:51.974Z,8.71
2019-03-29T05:51:51.963Z,8.89
2019-03-29T05:52:51.962Z,9.09
2019-03-29T05:53:51.941Z,9.28
2019-03-29T05:54:51.930Z,9.51
2019-03-29T05:55:51.927Z,9.73
2019-03-29T05:56:51.921Z,9.95
2019-03-29T05:57:51.899Z,10.19
2019-03-29T05:58:51.899Z,10.43
2019-03-29T05:59:51.878Z,10.67
2019-03-29T06:00:51.869Z,10.88
2019-03-29T06:01:51.858Z,11.08
2019-03-29T06:02:51.846Z,11.29
2019-03-29T06:03:51.835Z,11.47
2019-03-29T06:04:51.834Z,11.67
2019-03-29T06:05:51.818Z,11.93
2019-03-29T06:06:51.803Z,12.17
2019-03-29T06:07:51.793Z,12.33
2019-03-29T06:08:51.783Z,12.47
2019-03-29T06:09:51.773Z,12.64
2019-03-29T06:10:51.769Z,12.86
2019-03-29T06:11:51.748Z,13.03
2019-03-29T06:12:51.738Z,13.28
2019-03-29T06:13:51.727Z,13.47
2019-03-29T06:14:51.715Z,13.72
2019-03-29T06:15:51.707Z,13.91
2019-03-29T06:16:51.709Z,14.13
2019-03-29T06:17:51.684Z,14.35
2019-03-29T06:18:51.673Z,14.45
2019-03-29T06:19:51.663Z,14.49
2019-03-29T06:20:51.653Z,14.60
2019-03-29T06:21:51.642Z,14.78
2019-03-29T06:22:51.671Z,14.99
2019-03-29T06:23:51.619Z,15.15
2019-03-29T06:24:51.608Z,15.23
2019-03-29T06:25:51.598Z,15.33
2019-03-29T06:26:51.586Z,15.66
2019-03-29T06:27:51.576Z,15.94
2019-03-29T06:28:51.575Z,16.21
2019-03-29T06:29:51.554Z,16.57
2019-03-29T06:30:51.544Z,16.92
2019-03-29T06:31:51.533Z,17.13
2019-03-29T06:32:51.523Z,17.19
2019-03-29T06:33:51.515Z,17.41
2019-03-29T06:34:51.510Z,17.61
2019-03-29T06:35:51.489Z,17.82
2019-03-29T06:36:51.480Z,18.15
2019-03-29T06:37:51.467Z,18.41
2019-03-29T06:38:51.456Z,18.77
2019-03-29T06:39:51.446Z,19.19
2019-03-29T06:41:02.213Z,19.60
2019-03-29T06:41:52.424Z,19.92
2019-03-29T06:42:51.412Z,20.22
2019-03-29T06:43:51.402Z,20.48
2019-03-29T06:44:51.391Z,20.74
2019-03-29T06:45:51.380Z,20.96
2019-03-29T06:46:51.380Z,21.20
2019-03-29T06:47:51.358Z,21.45
2019-03-29T06:48:51.347Z,21.70
2019-03-29T06:49:51.335Z,21.90
2019-03-29T06:50:51.489Z,22.08
2019-03-29T06:51:51.317Z,22.26
2019-03-29T06:52:51.315Z,22.38
2019-03-29T06:53:52.765Z,22.52
2019-03-29T06:54:51.283Z,22.64
2019-03-29T06:55:51.272Z,22.76
2019-03-29T06:56:51.261Z,22.90
2019-03-29T06:57:51.252Z,23.06
2019-03-29T06:58:51.252Z,23.25
2019-03-29T06:59:51.228Z,23.42
2019-03-29T07:00:51.223Z,23.59
2019-03-29T07:01:51.210Z,23.77
2019-03-29T07:02:51.195Z,23.92
2019-03-29T07:03:51.184Z,24.08
2019-03-29T07:04:51.183Z,24.23
2019-03-29T07:05:51.162Z,24.40
2019-03-29T07:06:51.152Z,24.57
2019-03-29T07:07:51.141Z,24.72
2019-03-29T07:08:51.132Z,24.86
2019-03-29T07:09:51.119Z,25.00
2019-03-29T07:10:51.121Z,25.14
2019-03-29T07:11:51.104Z,25.31
2019-03-29T07:12:51.089Z,25.53
2019-03-29T07:13:57.164Z,25.71
2019-03-29T07:14:52.064Z,25.88
2019-03-29T07:15:51.059Z,26.06
2019-03-29T07:16:51.053Z,26.22
2019-03-29T07:17:51.034Z,26.40
2019-03-29T07:18:51.027Z,26.61
2019-03-29T07:19:51.010Z,26.84
2019-03-29T07:20:50.999Z,27.05
2019-03-29T07:21:50.988Z,27.28
2019-03-29T07:22:50.988Z,27.49
2019-03-29T07:23:50.967Z,27.70
2019-03-29T07:24:50.957Z,27.84
2019-03-29T07:25:50.948Z,27.93
2019-03-29T07:26:50.936Z,27.99
2019-03-29T07:27:52.419Z,28.07
2019-03-29T07:28:50.924Z,28.19
2019-03-29T07:29:50.902Z,28.31
2019-03-29T07:30:50.894Z,28.46
2019-03-29T07:31:53.194Z,28.61
2019-03-29T07:32:50.870Z,28.75
2019-03-29T07:33:50.859Z,28.90
2019-03-29T07:34:50.860Z,29.08
2019-03-29T07:35:50.838Z,29.25
2019-03-29T07:36:50.826Z,29.37
2019-03-29T07:37:50.815Z,29.48
2019-03-29T07:38:50.803Z,29.58
2019-03-29T07:39:53.751Z,29.68
2019-03-29T07:40:50.793Z,29.75
2019-03-29T07:41:50.772Z,29.81
2019-03-29T07:42:50.763Z,29.87
2019-03-29T07:43:50.749Z,29.94
2019-03-29T07:44:50.741Z,30.04
2019-03-29T07:45:50.727Z,30.19
2019-03-29T07:46:50.727Z,30.41
2019-03-29T07:47:50.706Z,30.59
2019-03-29T07:48:50.695Z,30.74
2019-03-29T07:49:50.685Z,30.85
2019-03-29T07:50:50.673Z,31.00
2019-03-29T07:51:50.665Z,31.15
2019-03-29T07:52:50.672Z,31.26
2019-03-29T07:53:50.644Z,31.38
2019-03-29T07:54:50.696Z,31.48
2019-03-29T07:55:50.619Z,31.58
2019-03-29T07:56:50.609Z,31.64
2019-03-29T07:57:50.603Z,31.78
2019-03-29T07:58:50.618Z,31.94
2019-03-29T07:59:50.625Z,32.08
2019-03-29T08:00:50.565Z,32.26
2019-03-29T08:01:50.554Z,32.52
2019-03-29T08:02:50.557Z,32.79
2019-03-29T08:03:51.436Z,33.08
2019-03-29T08:04:51.285Z,33.33
2019-03-29T08:05:50.510Z,33.56
2019-03-29T08:06:50.500Z,33.79
2019-03-29T08:07:50.489Z,34.03
2019-03-29T08:08:50.483Z,34.23
2019-03-29T08:09:50.469Z,34.45
2019-03-29T08:10:53.608Z,34.66
2019-03-29T08:11:50.447Z,34.83
2019-03-29T08:12:50.435Z,35.05
2019-03-29T08:13:50.423Z,35.16
2019-03-29T08:14:50.437Z,35.25
2019-03-29T08:15:50.402Z,35.36
2019-03-29T08:16:50.402Z,35.49
2019-03-29T08:17:50.380Z,35.61
2019-03-29T08:18:50.369Z,35.74
2019-03-29T08:20:12.902Z,35.84
2019-03-29T08:20:51.347Z,35.90
2019-03-29T08:21:50.337Z,35.97
2019-03-29T08:22:50.367Z,36.07
2019-03-29T08:23:50.318Z,36.19
2019-03-29T08:24:50.305Z,36.30
2019-03-29T08:25:50.295Z,36.41
2019-03-29T08:26:50.286Z,36.52
2019-03-29T08:27:50.273Z,36.63
2019-03-29T08:28:50.274Z,36.72
2019-03-29T08:29:50.253Z,36.80
2019-03-29T08:30:50.242Z,36.85
2019-03-29T08:31:50.231Z,36.91
2019-03-29T08:32:50.224Z,36.97
2019-03-29T08:33:50.209Z,37.07
2019-03-29T08:34:50.221Z,37.21
2019-03-29T08:35:50.188Z,37.35
2019-03-29T08:36:50.176Z,37.42
2019-03-29T08:37:50.165Z,37.49
2019-03-29T08:38:50.156Z,37.55
2019-03-29T08:39:50.146Z,37.57
2019-03-29T08:40:50.156Z,37.58
2019-03-29T08:42:00.175Z,37.60
2019-03-29T08:42:51.118Z,37.66
2019-03-29T08:43:50.099Z,37.72
2019-03-29T08:44:50.090Z,37.74
2019-03-29T08:45:50.089Z,37.79
2019-03-29T08:46:50.080Z,37.84
2019-03-29T08:47:50.058Z,37.87
2019-03-29T08:48:50.047Z,37.89
2019-03-29T08:49:50.038Z,37.91
2019-03-29T08:50:50.026Z,37.88
2019-03-29T08:51:50.015Z,37.83
2019-03-29T08:52:50.027Z,37.76
2019-03-29T08:53:49.997Z,37.70
2019-03-29T08:54:51.324Z,37.65
2019-03-29T08:55:49.973Z,37.63
2019-03-29T08:56:49.966Z,37.60
2019-03-29T08:57:49.951Z,37.56
2019-03-29T08:58:50.196Z,37.51
2019-03-29T08:59:49.930Z,37.38
2019-03-29T09:00:49.920Z,37.23
2019-03-29T09:01:49.910Z,37.14
2019-03-29T09:02:49.899Z,37.05
2019-03-29T09:04:02.636Z,37.00
2019-03-29T09:04:50.890Z,36.91
2019-03-29T09:05:49.866Z,36.75
2019-03-29T09:06:53.802Z,36.60
2019-03-29T09:07:49.845Z,36.47
2019-03-29T09:08:49.836Z,36.38
2019-03-29T09:09:49.823Z,36.29
2019-03-29T09:10:49.833Z,36.20
2019-03-29T09:11:49.804Z,36.11
2019-03-29T09:12:49.792Z,36.00
2019-03-29T09:13:49.785Z,35.83
2019-03-29T09:14:50.262Z,35.68
2019-03-29T09:15:49.760Z,35.50
2019-03-29T09:16:49.769Z,35.38
2019-03-29T09:17:49.739Z,35.26
2019-03-29T09:18:49.730Z,35.12
2019-03-29T09:19:49.717Z,35.03
2019-03-29T09:20:49.708Z,34.97
2019-03-29T09:21:49.696Z,34.85
2019-03-29T09:22:49.701Z,34.72
2019-03-29T09:23:49.677Z,34.55
2019-03-29T09:24:49.665Z,34.39
2019-03-29T09:25:49.658Z,34.26
2019-03-29T09:26:49.644Z,34.14
2019-03-29T09:27:49.634Z,34.07
2019-03-29T09:28:49.633Z,33.97
2019-03-29T09:29:49.615Z,33.88
2019-03-29T09:30:49.602Z,33.79
2019-03-29T09:31:49.591Z,33.69
2019-03-29T09:32:51.520Z,33.56
2019-03-29T09:33:49.570Z,33.39
2019-03-29T09:34:49.577Z,33.17
2019-03-29T09:35:49.550Z,32.95
2019-03-29T09:36:49.538Z,32.77
2019-03-29T09:37:49.527Z,32.57
2019-03-29T09:38:49.516Z,32.34
2019-03-29T09:39:49.508Z,32.10
2019-03-29T09:40:58.389Z,31.91
2019-03-29T09:41:50.490Z,31.74
2019-03-29T09:42:55.794Z,31.58
2019-03-29T09:43:53.877Z,31.47
2019-03-29T09:44:49.453Z,31.35
2019-03-29T09:45:49.444Z,31.31
2019-03-29T09:46:49.440Z,31.26
2019-03-29T09:47:49.419Z,31.20
2019-03-29T09:48:49.408Z,31.04
2019-03-29T09:49:49.398Z,30.91
2019-03-29T09:50:50.918Z,30.75
2019-03-29T09:51:49.385Z,30.64
2019-03-29T09:52:51.361Z,30.60
2019-03-29T09:53:49.354Z,30.59
2019-03-29T09:54:49.344Z,30.59
2019-03-29T09:55:49.333Z,30.63
2019-03-29T09:56:49.322Z,30.64
2019-03-29T09:57:49.313Z,30.66
2019-03-29T09:58:49.311Z,30.66
2019-03-29T09:59:49.295Z,30.67
2019-03-29T10:00:49.285Z,30.67
2019-03-29T10:01:49.268Z,30.71
2019-03-29T10:02:49.257Z,30.72
2019-03-29T10:03:49.246Z,30.72
2019-03-29T10:04:49.246Z,30.74
2019-03-29T10:05:49.234Z,30.77
2019-03-29T10:06:49.214Z,30.79
2019-03-29T10:07:49.208Z,30.85
2019-03-29T10:08:49.195Z,30.91
2019-03-29T10:09:49.186Z,30.96
2019-03-29T10:10:49.180Z,31.00
2019-03-29T10:11:49.165Z,31.08
2019-03-29T10:12:49.149Z,31.15
2019-03-29T10:13:49.140Z,31.22
2019-03-29T10:14:49.128Z,31.29
2019-03-29T10:15:51.299Z,31.36
2019-03-29T10:16:49.115Z,31.41
2019-03-29T10:17:49.093Z,31.44
2019-03-29T10:18:49.083Z,31.47
2019-03-29T10:19:50.014Z,31.49
2019-03-29T10:20:49.063Z,31.55
2019-03-29T10:21:49.050Z,31.56
2019-03-29T10:22:49.067Z,31.59
2019-03-29T10:23:49.036Z,31.66
2019-03-29T10:24:49.020Z,31.76
2019-03-29T10:25:49.008Z,31.84
2019-03-29T10:26:48.998Z,31.91
2019-03-29T10:27:48.986Z,31.97
2019-03-29T10:28:48.989Z,32.03
2019-03-29T10:29:48.962Z,32.04
2019-03-29T10:30:48.953Z,32.03
2019-03-29T10:31:48.940Z,32.00
2019-03-29T10:32:49.029Z,31.94
2019-03-29T10:33:49.434Z,31.86
2019-03-29T10:34:48.920Z,31.76
2019-03-29T10:35:53.052Z,31.66
2019-03-29T10:36:48.887Z,31.43
2019-03-29T10:37:48.876Z,30.95
2019-03-29T10:38:48.868Z,30.29
2019-03-29T10:39:48.854Z,29.48
2019-03-29T10:40:48.855Z,28.71
2019-03-29T10:41:48.833Z,28.04
2019-03-29T10:42:57.718Z,27.49
2019-03-29T10:43:49.809Z,27.00
2019-03-29T10:44:49.552Z,26.61
2019-03-29T10:45:48.790Z,26.27
2019-03-29T10:46:48.790Z,25.95
2019-03-29T10:47:48.776Z,25.68
2019-03-29T10:48:48.761Z,25.44
2019-03-29T10:49:48.747Z,25.22
2019-03-29T10:50:48.737Z,25.03
2019-03-29T10:51:48.725Z,24.87
2019-03-29T10:52:48.731Z,24.69
2019-03-29T10:53:48.702Z,24.53
2019-03-29T10:54:49.996Z,24.36
2019-03-29T10:55:48.681Z,24.19
2019-03-29T10:56:48.670Z,24.06
2019-03-29T10:57:48.659Z,23.93
2019-03-29T10:58:48.660Z,23.81
2019-03-29T10:59:48.640Z,23.69
2019-03-29T11:00:48.631Z,23.55
2019-03-29T11:01:48.618Z,23.41
2019-03-29T11:02:48.609Z,23.29
2019-03-29T11:03:48.596Z,23.14
2019-03-29T11:04:48.600Z,23.00
2019-03-29T11:05:48.573Z,22.87
2019-03-29T11:06:48.563Z,22.73
2019-03-29T11:07:48.552Z,22.59
2019-03-29T11:08:48.543Z,22.44
2019-03-29T11:09:48.535Z,22.31
2019-03-29T11:10:48.531Z,22.18
2019-03-29T11:11:48.508Z,22.06
2019-03-29T11:12:48.496Z,21.95
2019-03-29T11:13:48.488Z,21.85
2019-03-29T11:14:48.476Z,21.76
2019-03-29T11:15:48.464Z,21.69
2019-03-29T11:16:48.465Z,21.62
2019-03-29T11:17:48.444Z,21.55
2019-03-29T11:18:48.432Z,21.53
2019-03-29T11:19:48.420Z,21.50
2019-03-29T11:20:48.420Z,21.48
2019-03-29T11:21:48.398Z,21.46
2019-03-29T11:22:48.400Z,21.38
2019-03-29T11:23:48.378Z,21.33
2019-03-29T11:24:48.366Z,21.28
2019-03-29T11:25:48.955Z,21.19
2019-03-29T11:26:48.344Z,21.13
2019-03-29T11:27:48.334Z,21.07
2019-03-29T11:28:48.337Z,20.98
2019-03-29T11:29:48.313Z,20.89
2019-03-29T11:30:48.302Z,20.84
2019-03-29T11:31:48.291Z,20.80
2019-03-29T11:32:48.281Z,20.75
2019-03-29T11:33:48.270Z,20.73
2019-03-29T11:34:48.269Z,20.74
2019-03-29T11:35:48.248Z,20.72
2019-03-29T11:36:48.238Z,20.74
2019-03-29T11:37:48.227Z,20.72
2019-03-29T11:38:48.219Z,20.72
2019-03-29T11:39:48.205Z,20.73
2019-03-29T11:40:48.242Z,20.72
2019-03-29T11:41:48.184Z,20.70
2019-03-29T11:42:48.173Z,20.70
2019-03-29T11:43:48.162Z,20.70
2019-03-29T11:44:48.151Z,20.70
2019-03-29T11:45:48.140Z,20.71
2019-03-29T11:46:48.143Z,20.72
2019-03-29T11:47:48.118Z,20.73
2019-03-29T11:48:48.107Z,20.74
2019-03-29T11:49:48.097Z,20.73
2019-03-29T11:50:48.086Z,20.74
2019-03-29T11:51:48.076Z,20.73
2019-03-29T11:52:48.088Z,20.70
2019-03-29T11:53:50.851Z,20.66
2019-03-29T11:54:48.043Z,20.65
2019-03-29T11:55:48.034Z,20.63
2019-03-29T11:56:48.022Z,20.63
2019-03-29T11:57:48.013Z,20.59
2019-03-29T11:58:48.016Z,20.58
2019-03-29T11:59:47.990Z,20.53
2019-03-29T12:00:47.980Z,20.49
2019-03-29T12:01:47.970Z,20.47
2019-03-29T12:02:47.958Z,20.42
2019-03-29T12:03:47.947Z,20.40
2019-03-29T12:04:47.946Z,20.39
2019-03-29T12:05:47.927Z,20.38
2019-03-29T12:06:47.914Z,20.35
2019-03-29T12:07:47.903Z,20.32
2019-03-29T12:08:47.892Z,20.31
2019-03-29T12:09:47.881Z,20.28
2019-03-29T12:10:47.883Z,20.28
2019-03-29T12:11:47.861Z,20.28
2019-03-29T12:12:47.848Z,20.27
2019-03-29T12:13:47.838Z,20.26
2019-03-29T12:14:47.827Z,20.23
2019-03-29T12:15:47.816Z,20.21
2019-03-29T12:16:47.815Z,20.21
2019-03-29T12:17:47.795Z,20.18
2019-03-29T12:18:47.784Z,20.14
2019-03-29T12:19:47.773Z,20.10
2019-03-29T12:20:47.769Z,20.08
2019-03-29T12:21:47.753Z,20.07
2019-03-29T12:22:47.751Z,20.08
2019-03-29T12:23:47.730Z,20.11
2019-03-29T12:24:47.718Z,20.13
2019-03-29T12:25:47.709Z,20.13
2019-03-29T12:26:47.699Z,20.17
2019-03-29T12:27:47.686Z,20.19
2019-03-29T12:28:47.686Z,20.22
2019-03-29T12:29:47.668Z,20.24
2019-03-29T12:30:47.653Z,20.27
2019-03-29T12:31:47.645Z,20.28
2019-03-29T12:32:47.633Z,20.28
2019-03-29T12:33:47.620Z,20.29
2019-03-29T12:34:47.622Z,20.34
2019-03-29T12:35:47.599Z,20.36
2019-03-29T12:36:47.588Z,20.39
2019-03-29T12:37:47.577Z,20.44
2019-03-29T12:38:47.567Z,20.47
2019-03-29T12:39:47.556Z,20.51
2019-03-29T12:40:47.557Z,20.54
2019-03-29T12:41:47.534Z,20.55
2019-03-29T12:42:47.523Z,20.58
2019-03-29T12:43:55.369Z,20.60
2019-03-29T12:44:48.500Z,20.59
2019-03-29T12:45:47.500Z,20.58
2019-03-29T12:46:47.490Z,20.57
2019-03-29T12:47:47.469Z,20.57
2019-03-29T12:48:50.131Z,20.54
2019-03-29T12:49:47.447Z,20.53
2019-03-29T12:50:47.438Z,20.55
2019-03-29T12:51:47.426Z,20.57
2019-03-29T12:52:47.432Z,20.59
2019-03-29T12:53:47.403Z,20.63
2019-03-29T12:54:47.393Z,20.66
2019-03-29T12:55:47.382Z,20.69
2019-03-29T12:56:47.372Z,20.70
2019-03-29T12:57:47.363Z,20.70
2019-03-29T12:58:47.367Z,20.71
2019-03-29T12:59:47.343Z,20.70
2019-03-29T13:00:47.348Z,20.70